Time;durP1;ratioP1;P1;durP2;ratioP2;P2;SDS_P1;SDS_P2;PMS_P1;PMS_P2;Temp;Humidity;BMP_temperature;BMP_pressure;BME280_temperature;BME280_humidity;BME280_pressure;Samples;Min_cycle;Max_cycle;Signal;HPM_P1;HPM_P2
2023/10/23 00:02:00;;;;;;;1.35;1.23;;;13.70;70.90;;;;;;4969262;28;20034;-54
2023/10/23 00:04:27;;;;;;;1.88;1.02;;;13.70;70.70;;;;;;4963899;28;20531;-54
2023/10/23 00:06:54;;;;;;;1.13;1.00;;;13.70;70.50;;;;;;4970029;28;20545;-55
2023/10/23 00:09:21;;;;;;;1.38;1.20;;;13.60;70.30;;;;;;4964503;28;20130;-53
2023/10/23 00:11:47;;;;;;;2.65;1.30;;;13.60;70.10;;;;;;4970249;28;20089;-54
2023/10/23 00:14:14;;;;;;;1.17;1.08;;;13.50;70.00;;;;;;4969117;28;20066;-55
2023/10/23 00:16:41;;;;;;;1.10;1.02;;;13.50;69.80;;;;;;4969137;28;20173;-53
2023/10/23 00:19:07;;;;;;;1.95;1.45;;;13.50;69.80;;;;;;4963855;28;20035;-54
2023/10/23 00:21:34;;;;;;;1.42;1.13;;;13.40;69.80;;;;;;4968450;28;20042;-51
2023/10/23 00:24:01;;;;;;;1.45;0.90;;;13.40;69.80;;;;;;4965541;28;20412;-56
2023/10/23 00:26:27;;;;;;;1.60;1.30;;;13.30;69.70;;;;;;4963219;28;20118;-56
2023/10/23 00:28:54;;;;;;;1.15;1.05;;;13.30;69.90;;;;;;4969209;28;20496;-53
2023/10/23 00:31:22;;;;;;;1.38;1.20;;;13.20;69.90;;;;;;4966234;28;20734;-55
2023/10/23 00:33:50;;;;;;;1.30;1.20;;;13.20;69.90;;;;;;4966011;28;20412;-57
2023/10/23 00:36:18;;;;;;;1.30;0.88;;;13.10;69.90;;;;;;4966380;28;20537;-54
2023/10/23 00:38:44;;;;;;;2.40;1.38;;;13.10;70.10;;;;;;4968119;28;20113;-54
2023/10/23 00:41:11;;;;;;;1.92;1.25;;;13.10;70.00;;;;;;4972336;28;20046;-53
2023/10/23 00:43:38;;;;;;;3.30;1.00;;;13.00;70.00;;;;;;4969251;28;20039;-51
2023/10/23 00:46:12;;;;;;;1.92;1.10;;;13.00;70.00;;;;;;4969776;28;20073;-55
2023/10/23 00:48:43;;;;;;;1.35;1.17;;;13.00;70.00;;;;;;4965995;28;20517;-53
2023/10/23 00:51:12;;;;;;;1.33;1.10;;;12.90;69.80;;;;;;4972968;28;20070;-53
2023/10/23 00:53:41;;;;;;;1.00;0.90;;;12.90;69.80;;;;;;4973265;28;20122;-56
2023/10/23 00:56:09;;;;;;;1.35;0.90;;;12.90;69.70;;;;;;4965621;28;20047;-54
2023/10/23 00:58:41;;;;;;;2.17;1.00;;;12.80;69.60;;;;;;4970630;28;20043;-54
2023/10/23 01:01:12;;;;;;;0.95;0.85;;;12.80;69.60;;;;;;4970757;28;20039;-55
2023/10/23 01:03:43;;;;;;;1.00;0.90;;;12.70;69.60;;;;;;4970477;28;20046;-55
2023/10/23 01:06:12;;;;;;;1.08;1.00;;;12.70;69.70;;;;;;4968162;28;20098;-54
2023/10/23 01:08:41;;;;;;;0.85;0.85;;;12.70;69.70;;;;;;4972132;28;20046;-50
2023/10/23 01:11:08;;;;;;;0.82;0.80;;;12.70;69.80;;;;;;4966086;28;20035;-54
2023/10/23 01:13:35;;;;;;;9.15;1.77;;;12.60;69.70;;;;;;4970298;28;20043;-53
2023/10/23 01:16:01;;;;;;;1.35;1.25;;;12.60;69.80;;;;;;4971235;28;20043;-53
2023/10/23 01:18:31;;;;;;;2.38;0.82;;;12.60;70.50;;;;;;4971706;28;20507;-54
2023/10/23 01:20:58;;;;;;;2.60;0.90;;;12.60;69.80;;;;;;4969604;28;20053;-50
2023/10/23 01:23:29;;;;;;;2.60;1.00;;;12.50;69.70;;;;;;4969070;28;20126;-53
2023/10/23 01:25:57;;;;;;;1.77;0.88;;;12.50;69.70;;;;;;4967989;28;20043;-54
2023/10/23 01:28:24;;;;;;;1.50;1.20;;;12.50;69.70;;;;;;4969679;28;20505;-54
2023/10/23 01:30:51;;;;;;;1.45;0.95;;;12.50;69.60;;;;;;4971958;28;20042;-57
2023/10/23 01:33:18;;;;;;;1.23;1.13;;;12.50;69.50;;;;;;4963845;28;20598;-50
2023/10/23 01:35:46;;;;;;;1.88;1.23;;;12.50;69.40;;;;;;4964284;28;20154;-53
2023/10/23 01:38:13;;;;;;;1.92;1.08;;;12.50;69.60;;;;;;4968191;28;20043;-53
2023/10/23 01:40:40;;;;;;;0.93;0.93;;;12.40;69.50;;;;;;4971564;28;20055;-50
2023/10/23 01:43:07;;;;;;;1.55;1.30;;;12.40;69.50;;;;;;4968063;28;20122;-53
2023/10/23 01:45:33;;;;;;;1.00;0.93;;;12.40;69.40;;;;;;4971624;28;20410;-54
2023/10/23 01:48:00;;;;;;;1.73;1.08;;;12.30;69.30;;;;;;4970154;28;20047;-57
2023/10/23 01:50:29;;;;;;;3.85;1.10;;;12.30;69.30;;;;;;4975443;28;20101;-51
2023/10/23 01:52:58;;;;;;;2.92;0.90;;;12.30;69.30;;;;;;4967183;28;20042;-50
2023/10/23 01:55:25;;;;;;;0.98;0.82;;;12.30;69.30;;;;;;4967671;28;20505;-54
2023/10/23 01:57:52;;;;;;;1.35;0.85;;;12.20;69.30;;;;;;4970205;28;20090;-56
2023/10/23 02:00:20;;;;;;;1.90;0.90;;;12.20;69.30;;;;;;4968450;28;20051;-59
2023/10/23 02:02:47;;;;;;;0.90;0.63;;;12.20;69.30;;;;;;4970638;28;20038;-55
2023/10/23 02:05:16;;;;;;;1.27;1.05;;;12.10;69.20;;;;;;4967267;28;20039;-55
2023/10/23 02:07:43;;;;;;;0.95;0.82;;;12.10;69.20;;;;;;4970040;28;20113;-56
2023/10/23 02:10:09;;;;;;;1.50;1.00;;;12.10;69.10;;;;;;4969618;28;20057;-52
2023/10/23 02:12:36;;;;;;;1.77;0.75;;;12.10;69.10;;;;;;4971325;28;20070;-51
2023/10/23 02:15:04;;;;;;;0.63;0.60;;;12.00;69.10;;;;;;4966637;28;20042;-51
2023/10/23 02:17:30;;;;;;;1.02;0.70;;;12.00;69.00;;;;;;4970048;28;20440;-54
2023/10/23 02:19:58;;;;;;;1.85;1.10;;;12.00;69.10;;;;;;4970284;28;20041;-52
2023/10/23 02:22:25;;;;;;;0.57;0.50;;;12.00;69.20;;;;;;4965138;28;20043;-52
2023/10/23 02:24:52;;;;;;;3.13;0.90;;;12.00;69.10;;;;;;4967006;28;20074;-54
2023/10/23 02:27:21;;;;;;;2.25;0.75;;;11.90;69.00;;;;;;4962103;28;20047;-52
2023/10/23 02:29:48;;;;;;;0.93;0.93;;;11.90;69.00;;;;;;4969248;28;20045;-53
2023/10/23 02:32:15;;;;;;;1.00;1.00;;;11.90;69.00;;;;;;4971647;28;20098;-52
2023/10/23 02:34:47;;;;;;;3.22;1.27;;;11.80;69.00;;;;;;4966488;28;20053;-54
2023/10/23 02:37:14;;;;;;;0.70;0.70;;;11.80;69.10;;;;;;4971417;28;20054;-55
2023/10/23 02:39:43;;;;;;;4.38;1.00;;;11.60;69.00;;;;;;4969821;28;20585;-52
2023/10/23 02:42:10;;;;;;;1.95;1.08;;;11.80;69.20;;;;;;4965855;28;20047;-54
2023/10/23 02:44:37;;;;;;;4.22;1.00;;;11.80;69.10;;;;;;4965147;28;20313;-57
2023/10/23 02:47:06;;;;;;;1.83;0.80;;;11.80;69.10;;;;;;4970397;28;20047;-50
2023/10/23 02:49:33;;;;;;;0.52;0.50;;;11.70;69.00;;;;;;4969946;28;20058;-55
2023/10/23 02:51:59;;;;;;;0.73;0.50;;;11.70;69.00;;;;;;4969482;28;20132;-57
2023/10/23 02:54:26;;;;;;;1.23;0.60;;;11.70;68.90;;;;;;4964266;28;20113;-53
2023/10/23 02:56:53;;;;;;;2.38;0.70;;;11.70;68.90;;;;;;4965674;28;20046;-54
2023/10/23 02:59:21;;;;;;;0.73;0.60;;;11.70;68.80;;;;;;4968912;28;20460;-51
2023/10/23 03:01:48;;;;;;;0.60;0.60;;;11.70;68.90;;;;;;4969107;28;20110;-54
2023/10/23 03:04:15;;;;;;;1.40;0.80;;;11.60;68.80;;;;;;4967856;28;20497;-50
2023/10/23 03:06:42;;;;;;;1.63;0.68;;;11.60;68.90;;;;;;4969109;28;20062;-56
2023/10/23 03:09:09;;;;;;;1.38;0.90;;;11.60;68.80;;;;;;4969607;28;20486;-55
2023/10/23 03:11:38;;;;;;;1.88;1.10;;;11.60;68.80;;;;;;4968565;28;20062;-54
2023/10/23 03:14:08;;;;;;;1.15;0.98;;;11.50;68.90;;;;;;4968744;28;20580;-49
2023/10/23 03:16:35;;;;;;;3.60;0.90;;;11.50;68.90;;;;;;4969494;28;20046;-55
2023/10/23 03:19:02;;;;;;;1.55;0.88;;;11.50;68.90;;;;;;4968490;28;20042;-54
2023/10/23 03:21:29;;;;;;;1.10;0.60;;;11.50;68.90;;;;;;4962352;28;20047;-55
2023/10/23 03:23:56;;;;;;;0.57;0.57;;;11.50;68.90;;;;;;4965039;28;20038;-53
2023/10/23 03:26:23;;;;;;;1.33;0.77;;;11.40;68.80;;;;;;4961894;28;20694;-53
2023/10/23 03:28:52;;;;;;;1.05;0.80;;;11.40;68.80;;;;;;4967558;28;20031;-53
2023/10/23 03:31:21;;;;;;;2.10;1.10;;;11.40;68.90;;;;;;4963739;28;20046;-58
2023/10/23 03:33:48;;;;;;;0.85;0.85;;;11.40;68.90;;;;;;4964397;28;20051;-56
2023/10/23 03:36:16;;;;;;;0.80;0.80;;;11.40;68.90;;;;;;4965710;28;20049;-54
2023/10/23 03:38:45;;;;;;;1.35;0.75;;;11.30;68.80;;;;;;4968879;28;20035;-51
2023/10/23 03:41:12;;;;;;;1.40;1.08;;;11.30;68.90;;;;;;4967090;28;20058;-55
2023/10/23 03:43:40;;;;;;;3.10;1.33;;;11.30;69.00;;;;;;4966373;28;20078;-55
2023/10/23 03:46:07;;;;;;;1.10;0.95;;;11.30;69.10;;;;;;4961815;28;20041;-52
2023/10/23 03:48:37;;;;;;;2.03;1.17;;;11.30;69.10;;;;;;4963399;28;20035;-56
2023/10/23 03:51:04;;;;;;;1.77;1.60;;;11.30;69.10;;;;;;4959008;28;20042;-53
2023/10/23 03:53:33;;;;;;;2.55;1.75;;;11.30;69.20;;;;;;4957042;28;20085;-54
2023/10/23 03:56:00;;;;;;;4.28;2.40;;;11.30;69.20;;;;;;4962465;28;20149;-49
2023/10/23 03:58:26;;;;;;;3.42;2.53;;;11.30;69.30;;;;;;4966722;28;20057;-51
2023/10/23 04:00:54;;;;;;;3.65;3.28;;;11.30;69.30;;;;;;4969800;28;20126;-55
2023/10/23 04:03:21;;;;;;;4.07;2.90;;;11.30;69.20;;;;;;4965392;28;20158;-54
2023/10/23 04:05:49;;;;;;;4.30;3.80;;;11.20;69.20;;;;;;4968685;28;20563;-56
2023/10/23 04:08:15;;;;;;;4.70;3.63;;;11.20;69.20;;;;;;4969277;28;20081;-56
2023/10/23 04:10:46;;;;;;;4.53;2.67;;;11.30;69.30;;;;;;4963603;28;20461;-52
2023/10/23 04:13:14;;;;;;;3.47;3.15;;;11.20;69.10;;;;;;4965949;28;20568;-51
2023/10/23 04:15:51;;;;;;;3.00;2.72;;;11.30;69.20;;;;;;4972112;28;20057;-50
2023/10/23 04:18:18;;;;;;;4.57;2.60;;;11.20;69.00;;;;;;4972691;28;20051;-53
2023/10/23 04:20:45;;;;;;;5.47;3.13;;;11.20;69.00;;;;;;4968203;28;20433;-52
2023/10/23 04:23:12;;;;;;;4.38;2.58;;;11.20;68.90;;;;;;4972464;28;20057;-51
2023/10/23 04:25:38;;;;;;;5.25;3.10;;;11.20;69.00;;;;;;4968000;28;20114;-53
2023/10/23 04:28:05;;;;;;;3.70;2.80;;;11.20;69.00;;;;;;4968752;28;20110;-55
2023/10/23 04:30:31;;;;;;;4.40;2.85;;;11.20;69.10;;;;;;4970984;28;20456;-54
2023/10/23 04:33:01;;;;;;;4.63;2.63;;;11.10;69.10;;;;;;4968664;28;20421;-55
2023/10/23 04:35:27;;;;;;;4.13;2.50;;;11.10;69.20;;;;;;4967741;28;20042;-54
2023/10/23 04:37:54;;;;;;;4.85;2.25;;;11.10;69.40;;;;;;4971446;28;20552;-55
2023/10/23 04:40:21;;;;;;;3.17;1.90;;;11.10;69.60;;;;;;4968348;28;20062;-57
2023/10/23 04:42:47;;;;;;;7.55;2.42;;;11.10;69.70;;;;;;4968486;28;20069;-54
2023/10/23 04:45:19;;;;;;;2.92;2.15;;;11.10;69.60;;;;;;4964159;28;20114;-54
2023/10/23 04:47:45;;;;;;;2.33;1.53;;;11.10;69.70;;;;;;4966878;28;20094;-57
2023/10/23 04:50:12;;;;;;;1.83;1.50;;;11.00;69.60;;;;;;4969858;28;20497;-50
2023/10/23 04:52:39;;;;;;;2.45;1.52;;;11.10;69.60;;;;;;4966683;28;20074;-52
2023/10/23 04:55:06;;;;;;;1.50;1.40;;;11.10;69.60;;;;;;4968245;28;20075;-56
2023/10/23 04:57:33;;;;;;;3.60;1.20;;;11.10;69.60;;;;;;4964715;28;20047;-53
2023/10/23 05:00:00;;;;;;;1.27;1.17;;;11.10;69.50;;;;;;4965743;28;20042;-52
2023/10/23 05:02:27;;;;;;;2.38;1.40;;;11.10;69.40;;;;;;4965698;28;20451;-53
2023/10/23 05:04:54;;;;;;;1.30;1.20;;;11.10;69.30;;;;;;4961843;28;20053;-52
2023/10/23 05:07:20;;;;;;;1.85;1.48;;;11.10;69.20;;;;;;4969246;28;20118;-52
2023/10/23 05:09:47;;;;;;;1.27;1.13;;;11.00;69.20;;;;;;4970086;28;20042;-53
2023/10/23 05:12:14;;;;;;;1.90;1.48;;;11.00;69.10;;;;;;4973278;28;20125;-55
2023/10/23 05:14:41;;;;;;;2.78;1.17;;;11.00;69.10;;;;;;4966571;28;20051;-51
2023/10/23 05:17:07;;;;;;;1.70;1.13;;;11.00;69.00;;;;;;4971654;28;20129;-55
2023/10/23 05:19:34;;;;;;;2.33;1.77;;;11.00;69.00;;;;;;4970857;28;20117;-50
2023/10/23 05:22:01;;;;;;;1.80;1.05;;;10.90;68.80;;;;;;4969462;28;20066;-53
2023/10/23 05:24:28;;;;;;;1.35;1.00;;;10.90;69.50;;;;;;4966665;28;20042;-55
2023/10/23 05:26:57;;;;;;;1.73;1.52;;;10.90;68.80;;;;;;4963277;28;20058;-51
2023/10/23 05:29:23;;;;;;;1.80;1.30;;;10.90;68.70;;;;;;4962753;28;20134;-51
2023/10/23 05:31:50;;;;;;;3.03;1.30;;;10.80;68.70;;;;;;4967636;28;20069;-56
2023/10/23 05:34:17;;;;;;;2.65;1.20;;;10.80;68.70;;;;;;4960853;28;20134;-50
2023/10/23 05:36:43;;;;;;;2.15;1.00;;;10.80;68.70;;;;;;4968487;28;20055;-54
2023/10/23 05:39:10;;;;;;;1.52;1.00;;;10.80;68.70;;;;;;4970403;28;20503;-53
2023/10/23 05:41:37;;;;;;;2.10;0.90;;;10.70;68.70;;;;;;4963961;28;20062;-51
2023/10/23 05:44:04;;;;;;;1.05;0.93;;;10.70;68.70;;;;;;4961620;28;20110;-54
2023/10/23 05:46:31;;;;;;;1.95;0.98;;;10.70;68.80;;;;;;4970359;28;20046;-55
2023/10/23 05:48:57;;;;;;;1.70;1.13;;;10.60;68.80;;;;;;4970521;28;20164;-55
2023/10/23 05:51:24;;;;;;;2.40;1.30;;;10.60;68.80;;;;;;4970658;28;20046;-53
2023/10/23 05:53:51;;;;;;;1.13;1.08;;;10.60;68.80;;;;;;4963803;28;20885;-52
2023/10/23 05:56:17;;;;;;;1.33;1.23;;;10.60;68.80;;;;;;4962704;28;20513;-52
2023/10/23 05:58:46;;;;;;;1.50;1.35;;;10.50;68.80;;;;;;4969395;28;20126;-56
2023/10/23 06:01:13;;;;;;;1.35;1.25;;;10.50;68.80;;;;;;4967970;28;20058;-49
2023/10/23 06:03:40;;;;;;;2.97;1.73;;;10.50;68.80;;;;;;4962610;28;20046;-52
2023/10/23 06:06:07;;;;;;;2.60;2.00;;;10.50;68.80;;;;;;4964767;28;20045;-52
2023/10/23 06:08:35;;;;;;;2.75;1.50;;;10.50;68.80;;;;;;4964424;28;20114;-53
2023/10/23 06:11:02;;;;;;;2.08;1.35;;;10.40;68.80;;;;;;4964818;28;20122;-50
2023/10/23 06:13:28;;;;;;;2.13;1.67;;;10.40;68.80;;;;;;4965745;28;20057;-53
2023/10/23 06:16:02;;;;;;;1.85;1.50;;;10.40;68.80;;;;;;4964084;28;20102;-52
2023/10/23 06:18:30;;;;;;;1.95;1.35;;;10.40;68.80;;;;;;4964667;28;20097;-52
2023/10/23 06:21:03;;;;;;;1.80;1.35;;;10.40;68.80;;;;;;4962375;28;20494;-53
2023/10/23 06:23:49;;;;;;;2.17;1.38;;;10.40;68.90;;;;;;4965344;28;20097;-52
2023/10/23 06:26:16;;;;;;;0.90;0.90;;;10.40;68.90;;;;;;4963959;28;20126;-52
2023/10/23 06:28:43;;;;;;;1.10;1.00;;;10.40;68.90;;;;;;4971499;28;20656;-52
2023/10/23 06:31:10;;;;;;;1.05;0.95;;;10.40;69.00;;;;;;4960242;28;20046;-55
2023/10/23 06:33:44;;;;;;;1.60;1.10;;;10.30;69.00;;;;;;4963757;28;20453;-53
2023/10/23 06:36:13;;;;;;;2.17;1.08;;;10.30;69.00;;;;;;4968688;28;20053;-53
2023/10/23 06:38:40;;;;;;;0.77;0.77;;;10.30;69.20;;;;;;4970600;28;20054;-53
2023/10/23 06:41:10;;;;;;;1.73;1.00;;;10.30;69.20;;;;;;4970388;28;20581;-51
2023/10/23 06:43:37;;;;;;;3.30;1.70;;;10.30;69.20;;;;;;4966539;28;20085;-54
2023/10/23 06:46:04;;;;;;;2.42;1.60;;;10.30;69.20;;;;;;4967050;28;20046;-51
2023/10/23 06:48:31;;;;;;;1.48;1.38;;;10.30;69.20;;;;;;4960472;28;20118;-54
2023/10/23 06:50:59;;;;;;;2.65;1.60;;;10.30;69.20;;;;;;4962298;28;20489;-53
2023/10/23 06:53:26;;;;;;;3.25;1.95;;;10.40;69.30;;;;;;4966122;28;20058;-49
2023/10/23 06:55:55;;;;;;;1.98;1.80;;;10.40;69.50;;;;;;4965918;28;20101;-53
2023/10/23 06:58:22;;;;;;;1.88;1.73;;;10.40;69.60;;;;;;4964949;28;20107;-51
2023/10/23 07:00:49;;;;;;;1.77;1.67;;;10.40;69.70;;;;;;4969861;28;20063;-53
2023/10/23 07:03:15;;;;;;;2.00;1.77;;;10.40;69.70;;;;;;4971330;28;20051;-50
2023/10/23 07:05:43;;;;;;;2.35;2.22;;;10.40;69.90;;;;;;4966432;28;20142;-53
2023/10/23 07:08:09;;;;;;;2.80;2.25;;;10.50;70.00;;;;;;4970302;28;20101;-52
2023/10/23 07:10:36;;;;;;;3.20;2.30;;;10.50;70.10;;;;;;4962505;28;20109;-54
2023/10/23 07:13:03;;;;;;;2.90;2.40;;;10.60;70.30;;;;;;4965399;28;20050;-50
2023/10/23 07:15:44;;;;;;;3.97;2.23;;;10.60;70.30;;;;;;4970027;28;20046;-52
2023/10/23 07:18:11;;;;;;;3.08;2.38;;;10.60;70.30;;;;;;4962117;28;20102;-55
2023/10/23 07:20:38;;;;;;;4.00;3.22;;;10.60;70.40;;;;;;4967587;28;20046;-51
2023/10/23 07:23:07;;;;;;;4.13;2.40;;;10.70;70.80;;;;;;4960459;28;20501;-52
2023/10/23 07:25:34;;;;;;;4.47;2.88;;;10.80;71.10;;;;;;4967219;28;20113;-51
2023/10/23 07:28:00;;;;;;;4.00;3.13;;;10.80;71.20;;;;;;4969702;28;20470;-52
2023/10/23 07:30:27;;;;;;;4.70;2.70;;;10.80;71.20;;;;;;4969972;28;20106;-52
2023/10/23 07:32:54;;;;;;;5.75;3.10;;;10.90;71.50;;;;;;4969000;28;20070;-55
2023/10/23 07:35:26;;;;;;;5.85;2.88;;;11.00;71.70;;;;;;4963909;28;20527;-50
2023/10/23 07:37:57;;;;;;;3.13;2.80;;;11.00;72.20;;;;;;4965065;28;20117;-54
2023/10/23 07:40:24;;;;;;;5.20;3.10;;;11.10;72.20;;;;;;4960452;28;20433;-54
2023/10/23 07:42:52;;;;;;;4.63;3.70;;;11.10;72.50;;;;;;4965465;28;20043;-52
2023/10/23 07:45:19;;;;;;;4.32;3.60;;;11.20;72.90;;;;;;4970132;28;20429;-51
2023/10/23 07:47:48;;;;;;;6.30;3.40;;;11.30;73.10;;;;;;4972967;28;20050;-53
2023/10/23 07:50:15;;;;;;;7.07;3.35;;;11.40;73.30;;;;;;4969417;28;20047;-53
2023/10/23 07:52:41;;;;;;;6.95;3.67;;;11.50;73.40;;;;;;4967191;28;20058;-52
2023/10/23 07:55:08;;;;;;;9.38;4.05;;;11.50;73.50;;;;;;4969323;28;20121;-52
2023/10/23 07:57:35;;;;;;;5.35;3.97;;;11.60;73.60;;;;;;4973396;28;20085;-50
2023/10/23 08:00:04;;;;;;;7.20;3.55;;;11.70;73.80;;;;;;4973636;28;20089;-52
2023/10/23 08:02:32;;;;;;;6.93;4.50;;;11.80;73.80;;;;;;4969589;28;20421;-53
2023/10/23 08:04:59;;;;;;;7.15;3.53;;;11.90;73.80;;;;;;4968487;28;20061;-51
2023/10/23 08:07:26;;;;;;;6.93;3.65;;;12.00;73.90;;;;;;4974166;28;20461;-51
2023/10/23 08:09:53;;;;;;;5.53;3.58;;;12.10;74.00;;;;;;4972854;28;20126;-54
2023/10/23 08:12:19;;;;;;;6.78;3.60;;;12.20;74.00;;;;;;4969409;28;20075;-50
2023/10/23 08:14:46;;;;;;;12.70;3.63;;;12.20;74.00;;;;;;4974008;28;20039;-53
2023/10/23 08:17:13;;;;;;;4.90;3.75;;;12.30;74.00;;;;;;4973017;28;20478;-52
2023/10/23 08:19:59;;;;;;;7.03;4.30;;;12.40;74.10;;;;;;4965368;28;20105;-53
2023/10/23 08:22:26;;;;;;;7.13;3.95;;;12.50;74.00;;;;;;4971661;28;20560;-51
2023/10/23 08:24:53;;;;;;;6.60;3.67;;;12.50;74.00;;;;;;4972192;28;20043;-53
2023/10/23 08:27:20;;;;;;;8.32;3.85;;;12.60;74.00;;;;;;4969710;28;20070;-55
2023/10/23 08:29:47;;;;;;;5.90;3.17;;;12.70;74.10;;;;;;4964885;28;20548;-54
2023/10/23 08:32:15;;;;;;;6.22;3.80;;;12.80;74.20;;;;;;4969959;28;20074;-50
2023/10/23 08:34:45;;;;;;;6.30;3.17;;;12.80;74.20;;;;;;4963070;28;20393;-56
2023/10/23 08:37:16;;;;;;;4.70;2.97;;;12.90;74.30;;;;;;4965685;28;20134;-54
2023/10/23 08:39:44;;;;;;;4.72;3.53;;;13.00;74.10;;;;;;4972684;28;20043;-55
2023/10/23 08:42:11;;;;;;;8.38;3.78;;;13.10;74.00;;;;;;4970215;28;20381;-52
2023/10/23 08:44:37;;;;;;;5.65;3.78;;;13.10;73.90;;;;;;4967859;28;20126;-54
2023/10/23 08:47:04;;;;;;;5.15;3.70;;;13.20;73.90;;;;;;4966597;28;20093;-49
2023/10/23 08:49:31;;;;;;;5.22;3.45;;;13.20;73.70;;;;;;4964505;28;20040;-55
2023/10/23 08:51:59;;;;;;;4.15;3.38;;;13.30;73.80;;;;;;4972148;28;20207;-54
2023/10/23 08:54:27;;;;;;;8.70;3.40;;;13.30;73.70;;;;;;4969912;28;20098;-51
2023/10/23 08:56:59;;;;;;;6.80;4.68;;;13.40;73.90;;;;;;4965456;28;20496;-51
2023/10/23 08:59:26;;;;;;;8.73;4.90;;;13.50;74.00;;;;;;4972980;28;20078;-53
2023/10/23 09:01:55;;;;;;;7.97;5.72;;;13.50;73.80;;;;;;4967795;28;20081;-53
2023/10/23 09:04:28;;;;;;;9.93;7.28;;;13.60;73.80;;;;;;4967223;28;20122;-53
2023/10/23 09:06:58;;;;;;;8.65;6.18;;;13.60;73.70;;;;;;4971772;28;20122;-55
2023/10/23 09:09:28;;;;;;;7.93;5.43;;;13.70;73.70;;;;;;4961517;28;20063;-57
2023/10/23 09:11:55;;;;;;;8.65;5.28;;;13.80;73.70;;;;;;4971307;28;20041;-54
2023/10/23 09:14:30;;;;;;;4.10;3.70;;;13.90;73.70;;;;;;4972588;28;20512;-53
2023/10/23 09:16:59;;;;;;;6.20;3.72;;;14.00;73.80;;;;;;4970449;28;20043;-54
2023/10/23 09:19:29;;;;;;;7.47;3.67;;;14.00;73.50;;;;;;4968885;28;20121;-55
2023/10/23 09:21:56;;;;;;;7.95;3.53;;;14.10;73.50;;;;;;4970985;28;20081;-56
2023/10/23 09:24:26;;;;;;;3.90;3.10;;;14.20;73.50;;;;;;4961650;28;20039;-52
2023/10/23 09:26:53;;;;;;;6.20;2.50;;;14.20;73.60;;;;;;4966829;28;20030;-56
2023/10/23 09:29:27;;;;;;;6.88;3.42;;;14.30;73.60;;;;;;4968385;28;20131;-54
2023/10/23 09:31:55;;;;;;;5.35;3.13;;;14.40;73.50;;;;;;4964901;28;20063;-56
2023/10/23 09:34:22;;;;;;;5.15;2.60;;;14.40;73.30;;;;;;4966106;28;20046;-52
2023/10/23 09:36:51;;;;;;;6.43;3.58;;;14.50;73.20;;;;;;4970646;28;20351;-50
2023/10/23 09:39:19;;;;;;;9.55;4.40;;;14.50;73.10;;;;;;4971473;28;20051;-55
2023/10/23 09:41:46;;;;;;;7.95;2.92;;;14.60;73.10;;;;;;4972480;28;20515;-55
2023/10/23 09:44:14;;;;;;;6.18;3.03;;;14.70;73.10;;;;;;4966928;28;20042;-50
2023/10/23 09:46:44;;;;;;;6.30;3.58;;;14.80;73.10;;;;;;4969449;28;20096;-50
2023/10/23 09:49:11;;;;;;;4.47;3.10;;;14.80;73.10;;;;;;4971065;28;20102;-56
2023/10/23 09:51:39;;;;;;;7.50;2.80;;;14.90;73.10;;;;;;4966801;28;20058;-57
2023/10/23 09:54:19;;;;;;;4.00;3.20;;;15.00;73.10;;;;;;4969069;28;20050;-54
2023/10/23 09:56:51;;;;;;;4.05;2.97;;;15.10;73.00;;;;;;4966608;28;20121;-54
2023/10/23 09:59:28;;;;;;;5.88;3.17;;;15.10;73.10;;;;;;4970434;28;20448;-54
2023/10/23 10:02:00;;;;;;;3.40;2.85;;;15.20;72.80;;;;;;4964158;28;20077;-58
2023/10/23 10:04:38;;;;;;;4.40;3.00;;;15.30;72.70;;;;;;4964898;28;20047;-51
2023/10/23 10:07:10;;;;;;;5.88;2.40;;;15.40;72.70;;;;;;4969350;28;20496;-54
2023/10/23 10:09:39;;;;;;;7.45;2.90;;;15.50;73.00;;;;;;4967332;28;20446;-54
2023/10/23 10:12:07;;;;;;;4.95;2.90;;;15.60;72.10;;;;;;4966568;28;20049;-57
2023/10/23 10:14:34;;;;;;;4.63;3.47;;;15.70;72.10;;;;;;4971904;28;20422;-54
2023/10/23 10:17:02;;;;;;;5.22;2.40;;;15.70;71.90;;;;;;4969025;28;20106;-53
2023/10/23 10:19:30;;;;;;;6.30;2.92;;;15.80;71.80;;;;;;4961584;28;20042;-53
2023/10/23 10:22:14;;;;;;;4.50;3.22;;;15.90;71.70;;;;;;4970241;28;20138;-52
2023/10/23 10:24:42;;;;;;;5.38;3.00;;;16.00;71.30;;;;;;4964884;28;20039;-55
2023/10/23 10:27:09;;;;;;;7.78;3.50;;;16.10;71.30;;;;;;4966163;28;20572;-53
2023/10/23 10:29:36;;;;;;;7.07;3.20;;;16.10;71.30;;;;;;4967990;28;20130;-52
2023/10/23 10:32:11;;;;;;;6.00;3.08;;;16.20;71.30;;;;;;5084405;28;20395;-54
2023/10/23 10:34:46;;;;;;;6.20;3.58;;;16.30;71.10;;;;;;5060230;28;20116;-54
2023/10/23 10:37:28;;;;;;;6.38;3.33;;;16.40;70.60;;;;;;5065136;28;20102;-57
2023/10/23 10:39:55;;;;;;;5.60;4.00;;;16.40;70.50;;;;;;5055258;28;20037;-55
2023/10/23 10:42:28;;;;;;;7.38;4.20;;;16.50;70.40;;;;;;5058748;28;20656;-53
2023/10/23 10:44:57;;;;;;;9.38;4.88;;;16.60;70.50;;;;;;5060098;28;20090;-52
2023/10/23 10:47:45;;;;;;;8.93;4.40;;;16.60;70.20;;;;;;5064570;28;20499;-55
2023/10/23 10:50:28;;;;;;;7.07;4.50;;;16.70;70.10;;;;;;5071219;22;20076;-52
2023/10/23 10:52:59;;;;;;;7.50;4.93;;;16.70;70.10;;;;;;5045834;28;20065;-49
2023/10/23 10:55:26;;;;;;;8.63;5.80;;;16.80;70.00;;;;;;5042555;28;20384;-53
2023/10/23 10:57:54;;;;;;;7.18;5.45;;;16.80;69.90;;;;;;5045726;28;20129;-50
2023/10/23 11:00:22;;;;;;;8.90;6.82;;;16.80;69.70;;;;;;5045488;28;20045;-49
2023/10/23 11:02:49;;;;;;;7.45;6.55;;;16.80;69.50;;;;;;5039884;28;20126;-53
2023/10/23 11:05:16;;;;;;;8.50;6.60;;;16.90;69.40;;;;;;5043387;28;20060;-49
2023/10/23 11:07:47;;;;;;;9.27;7.45;;;16.90;69.40;;;;;;5045185;28;20049;-51
2023/10/23 11:10:14;;;;;;;8.50;7.35;;;16.90;69.30;;;;;;5044259;28;20069;-52
2023/10/23 11:12:40;;;;;;;8.13;7.32;;;16.80;69.10;;;;;;5040801;28;20781;-48
2023/10/23 11:15:07;;;;;;;14.00;9.90;;;16.90;69.30;;;;;;5028683;28;20077;-49
2023/10/23 11:17:35;;;;;;;9.57;8.60;;;17.00;69.20;;;;;;5044741;28;20054;-50
2023/10/23 11:20:07;;;;;;;9.52;8.40;;;17.00;69.00;;;;;;5043161;28;20073;-50
2023/10/23 11:22:34;;;;;;;10.65;8.77;;;17.00;68.70;;;;;;5043264;28;20079;-54
2023/10/23 11:25:00;;;;;;;8.88;8.07;;;17.00;68.80;;;;;;5043875;28;20124;-53
2023/10/23 11:27:27;;;;;;;9.07;8.10;;;17.00;68.70;;;;;;5043155;28;20041;-53
2023/10/23 11:29:54;;;;;;;9.85;8.25;;;17.10;68.70;;;;;;5045168;28;20065;-51
2023/10/23 11:32:20;;;;;;;10.43;9.10;;;17.10;68.80;;;;;;5044824;28;20114;-53
2023/10/23 11:34:47;;;;;;;10.32;9.32;;;17.10;68.40;;;;;;5037465;28;20025;-50
2023/10/23 11:37:14;;;;;;;9.63;8.63;;;17.10;68.00;;;;;;5044652;28;20825;-52
2023/10/23 11:39:43;;;;;;;9.88;8.88;;;17.10;67.90;;;;;;5045304;28;20037;-53
2023/10/23 11:42:11;;;;;;;10.13;9.13;;;17.10;67.70;;;;;;5039115;28;20049;-53
2023/10/23 11:44:39;;;;;;;10.98;9.88;;;17.10;67.70;;;;;;5025101;28;20503;-50
2023/10/23 11:47:10;;;;;;;10.30;9.20;;;17.10;67.70;;;;;;5031168;28;20076;-54
2023/10/23 11:49:37;;;;;;;9.68;8.68;;;17.10;67.80;;;;;;5031477;28;20050;-54
2023/10/23 11:52:04;;;;;;;10.10;9.10;;;17.10;67.80;;;;;;5020569;28;20041;-52
2023/10/23 11:54:31;;;;;;;10.75;9.30;;;17.10;67.80;;;;;;5031110;28;20152;-53
2023/10/23 11:56:58;;;;;;;9.35;8.27;;;17.20;68.00;;;;;;5027495;28;20065;-51
2023/10/23 11:59:26;;;;;;;8.75;7.85;;;17.20;67.80;;;;;;5031012;28;20534;-53
2023/10/23 12:01:56;;;;;;;9.32;8.30;;;17.20;67.60;;;;;;5030206;28;20065;-53
2023/10/23 12:04:23;;;;;;;8.95;7.35;;;17.20;67.60;;;;;;5031376;28;20427;-51
2023/10/23 12:06:50;;;;;;;7.78;6.95;;;17.30;67.60;;;;;;5018011;28;20522;-52
2023/10/23 12:09:17;;;;;;;9.10;6.40;;;17.30;67.60;;;;;;5031202;28;20492;-50
2023/10/23 12:11:44;;;;;;;8.68;6.18;;;17.30;67.60;;;;;;5028615;28;20045;-50
2023/10/23 12:14:11;;;;;;;7.50;6.07;;;17.30;67.50;;;;;;5031873;28;20156;-50
2023/10/23 12:16:38;;;;;;;8.60;4.75;;;17.40;67.70;;;;;;5030982;28;20072;-51
2023/10/23 12:19:05;;;;;;;5.57;5.07;;;17.40;67.60;;;;;;5029313;28;20069;-53
2023/10/23 12:21:32;;;;;;;6.20;4.70;;;17.50;67.50;;;;;;5024107;28;20053;-52
2023/10/23 12:24:01;;;;;;;4.70;4.00;;;17.50;67.30;;;;;;5028134;28;20573;-50
2023/10/23 12:26:27;;;;;;;5.18;4.22;;;17.50;67.10;;;;;;5026398;28;20246;-52
2023/10/23 12:28:54;;;;;;;5.00;3.80;;;17.60;67.10;;;;;;5031266;28;20125;-52
2023/10/23 12:31:21;;;;;;;4.07;3.67;;;17.60;66.70;;;;;;5030548;28;20065;-53
2023/10/23 12:33:51;;;;;;;4.57;3.58;;;17.70;66.60;;;;;;5030917;28;20037;-51
2023/10/23 12:36:19;;;;;;;5.43;3.75;;;17.60;66.20;;;;;;5028512;28;20117;-53
2023/10/23 12:38:46;;;;;;;4.60;4.20;;;17.70;66.20;;;;;;5025055;28;20047;-51
2023/10/23 12:41:12;;;;;;;6.95;3.60;;;17.70;66.20;;;;;;5030097;28;20514;-49
2023/10/23 12:43:39;;;;;;;4.03;3.30;;;17.70;66.20;;;;;;5030597;28;20045;-49
2023/10/23 12:46:06;;;;;;;4.97;3.80;;;17.70;66.20;;;;;;5027603;28;20148;-53
2023/10/23 12:48:33;;;;;;;4.18;3.70;;;17.70;66.20;;;;;;5024953;28;20034;-53
2023/10/23 12:51:00;;;;;;;5.22;3.45;;;17.70;66.20;;;;;;5026412;28;20076;-53